Pagrindinis puslapis
METAR-TAF:

METAR-TAF

Oro uostai :

Zanjan, Iranas

platuma: 36-41N, ilguma: 048-29E, Aukštis: 1663 m

Dabartinis oras

Ataskaita buvo paskelbta 1 valandą ir 1 minutes, ne 03:00 UTC
Vėjas 4 kt iš Rytų/Pietryčių
Temperatūra -3°C
Drėgmė 68%
Slėgis 1024 hPa
Matomumas 10 km arba daugiau
nėra debesų žemiau 1500 m ir nėra kamuolinių lietaus debesų

METAR: OITZ 130300Z 11004KT CAVOK M03/M08 Q1024

Laikas: 07:31 (04:01 UTC)


TAF: trūkstamas

Orai ataskaitas ir orų prognozės (METAR, TAF).

turimą stotys yra geltonos ir raudonos taškus žemėlapyje.

Perkelti pele per norėdami pamatyti stoties vardą.

Tada spustelėkite, norėdami matyti oro stebėjimo ir prognozės.

Norėdami pakeisti žemėlapį: spustelėkite ant žalios mygtukų su juodo kryžiaus žemyn,; žalią mygtuką su brūkšneliu, jei norite nutolinti; arba žalių rodyklių gretimoms žemėlapius.


METAR-TAF: